sensor_id;sensor_type;location;lat;lon;timestamp;temperature;humidity
13198;DHT22;6664;52.514;13.440;2023-02-28T00:00:06;1.90;26.50
13198;DHT22;6664;52.514;13.440;2023-02-28T00:02:58;2.00;26.60
13198;DHT22;6664;52.514;13.440;2023-02-28T00:05:44;2.10;26.30
13198;DHT22;6664;52.514;13.440;2023-02-28T00:08:30;2.10;26.20
13198;DHT22;6664;52.514;13.440;2023-02-28T00:11:16;2.20;26.30
13198;DHT22;6664;52.514;13.440;2023-02-28T00:14:02;2.20;26.30
13198;DHT22;6664;52.514;13.440;2023-02-28T00:16:47;2.20;26.30
13198;DHT22;6664;52.514;13.440;2023-02-28T00:19:33;2.30;26.40
13198;DHT22;6664;52.514;13.440;2023-02-28T00:22:20;2.30;26.00
13198;DHT22;6664;52.514;13.440;2023-02-28T00:25:07;2.30;25.90
13198;DHT22;6664;52.514;13.440;2023-02-28T00:27:53;2.30;25.90
13198;DHT22;6664;52.514;13.440;2023-02-28T00:30:41;2.30;25.80
13198;DHT22;6664;52.514;13.440;2023-02-28T00:33:27;2.30;25.80
13198;DHT22;6664;52.514;13.440;2023-02-28T00:36:16;2.40;25.90
13198;DHT22;6664;52.514;13.440;2023-02-28T00:39:02;2.40;25.70
13198;DHT22;6664;52.514;13.440;2023-02-28T00:41:48;2.40;25.60
13198;DHT22;6664;52.514;13.440;2023-02-28T00:44:34;2.40;25.80
13198;DHT22;6664;52.514;13.440;2023-02-28T00:47:19;2.40;25.80
13198;DHT22;6664;52.514;13.440;2023-02-28T00:50:06;2.40;25.80
13198;DHT22;6664;52.514;13.440;2023-02-28T00:52:52;2.30;25.50
13198;DHT22;6664;52.514;13.440;2023-02-28T00:55:37;2.40;25.50
13198;DHT22;6664;52.514;13.440;2023-02-28T00:58:23;2.40;25.50
13198;DHT22;6664;52.514;13.440;2023-02-28T01:01:09;2.40;25.50
13198;DHT22;6664;52.514;13.440;2023-02-28T01:03:57;2.40;25.40
13198;DHT22;6664;52.514;13.440;2023-02-28T01:06:42;2.30;25.60
13198;DHT22;6664;52.514;13.440;2023-02-28T01:09:28;2.20;25.80
13198;DHT22;6664;52.514;13.440;2023-02-28T01:12:21;2.10;26.20
13198;DHT22;6664;52.514;13.440;2023-02-28T01:15:06;2.10;26.20
13198;DHT22;6664;52.514;13.440;2023-02-28T01:17:52;2.10;26.20
13198;DHT22;6664;52.514;13.440;2023-02-28T01:20:38;2.00;26.50
13198;DHT22;6664;52.514;13.440;2023-02-28T01:23:24;2.00;26.70
13198;DHT22;6664;52.514;13.440;2023-02-28T01:26:18;1.90;26.90
13198;DHT22;6664;52.514;13.440;2023-02-28T01:29:03;1.90;27.00
13198;DHT22;6664;52.514;13.440;2023-02-28T01:31:49;1.90;27.00
13198;DHT22;6664;52.514;13.440;2023-02-28T01:34:36;1.90;27.10
13198;DHT22;6664;52.514;13.440;2023-02-28T01:37:22;1.80;27.20
13198;DHT22;6664;52.514;13.440;2023-02-28T01:40:10;1.80;27.30
13198;DHT22;6664;52.514;13.440;2023-02-28T01:42:56;1.70;27.50
13198;DHT22;6664;52.514;13.440;2023-02-28T01:45:41;1.60;27.60
13198;DHT22;6664;52.514;13.440;2023-02-28T01:48:32;1.50;27.90
13198;DHT22;6664;52.514;13.440;2023-02-28T01:54:34;1.20;28.80
13198;DHT22;6664;52.514;13.440;2023-02-28T01:57:24;1.00;29.10
13198;DHT22;6664;52.514;13.440;2023-02-28T02:00:18;0.80;29.60
13198;DHT22;6664;52.514;13.440;2023-02-28T02:03:11;0.60;30.00
13198;DHT22;6664;52.514;13.440;2023-02-28T02:05:59;0.40;30.40
13198;DHT22;6664;52.514;13.440;2023-02-28T02:08:44;0.20;31.20
13198;DHT22;6664;52.514;13.440;2023-02-28T02:11:32;0.00;32.00
13198;DHT22;6664;52.514;13.440;2023-02-28T02:17:29;-0.20;33.90
13198;DHT22;6664;52.514;13.440;2023-02-28T02:20:50;-0.30;34.70
13198;DHT22;6664;52.514;13.440;2023-02-28T02:36:21;-0.70;39.30
13198;DHT22;6664;52.514;13.440;2023-02-28T02:39:19;-0.90;39.50
13198;DHT22;6664;52.514;13.440;2023-02-28T02:42:16;-1.10;40.30
13198;DHT22;6664;52.514;13.440;2023-02-28T02:48:29;-1.20;41.90
13198;DHT22;6664;52.514;13.440;2023-02-28T02:51:20;-1.20;42.70
13198;DHT22;6664;52.514;13.440;2023-02-28T02:54:22;-1.10;43.50
13198;DHT22;6664;52.514;13.440;2023-02-28T02:57:21;-1.30;44.10
13198;DHT22;6664;52.514;13.440;2023-02-28T03:00:09;-1.30;44.80
13198;DHT22;6664;52.514;13.440;2023-02-28T03:02:58;-1.30;45.60
13198;DHT22;6664;52.514;13.440;2023-02-28T03:05:49;-1.20;46.00
13198;DHT22;6664;52.514;13.440;2023-02-28T03:08:37;-1.30;45.90
13198;DHT22;6664;52.514;13.440;2023-02-28T03:11:25;-1.50;46.40
13198;DHT22;6664;52.514;13.440;2023-02-28T03:23:21;-1.50;47.90
13198;DHT22;6664;52.514;13.440;2023-02-28T03:26:13;-1.40;48.30
13198;DHT22;6664;52.514;13.440;2023-02-28T03:29:09;-1.50;48.50
13198;DHT22;6664;52.514;13.440;2023-02-28T03:35:00;-1.50;48.80
13198;DHT22;6664;52.514;13.440;2023-02-28T03:37:55;-1.50;49.60
13198;DHT22;6664;52.514;13.440;2023-02-28T03:40:52;-1.60;49.40
13198;DHT22;6664;52.514;13.440;2023-02-28T03:43:45;-1.60;49.90
13198;DHT22;6664;52.514;13.440;2023-02-28T03:46:37;-1.70;50.00
13198;DHT22;6664;52.514;13.440;2023-02-28T03:49:27;-1.60;50.80
13198;DHT22;6664;52.514;13.440;2023-02-28T03:52:17;-1.70;51.00
13198;DHT22;6664;52.514;13.440;2023-02-28T03:55:10;-1.70;51.50
13198;DHT22;6664;52.514;13.440;2023-02-28T04:01:03;-1.70;51.90
13198;DHT22;6664;52.514;13.440;2023-02-28T04:03:53;-1.70;52.30
13198;DHT22;6664;52.514;13.440;2023-02-28T04:06:44;-1.70;52.50
13198;DHT22;6664;52.514;13.440;2023-02-28T04:09:30;-1.80;52.40
13198;DHT22;6664;52.514;13.440;2023-02-28T04:12:16;-1.70;53.00
13198;DHT22;6664;52.514;13.440;2023-02-28T04:15:02;-1.80;53.00
13198;DHT22;6664;52.514;13.440;2023-02-28T04:17:47;-1.80;53.10
13198;DHT22;6664;52.514;13.440;2023-02-28T04:20:32;-1.90;53.30
13198;DHT22;6664;52.514;13.440;2023-02-28T04:23:18;-1.90;53.80
13198;DHT22;6664;52.514;13.440;2023-02-28T04:26:09;-2.00;53.90
13198;DHT22;6664;52.514;13.440;2023-02-28T04:28:55;-1.90;54.70
13198;DHT22;6664;52.514;13.440;2023-02-28T04:31:43;-2.00;54.80
13198;DHT22;6664;52.514;13.440;2023-02-28T04:34:32;-2.00;55.40
13198;DHT22;6664;52.514;13.440;2023-02-28T04:37:18;-2.00;55.90
13198;DHT22;6664;52.514;13.440;2023-02-28T04:40:04;-2.00;56.00
13198;DHT22;6664;52.514;13.440;2023-02-28T04:42:52;-2.00;56.50
13198;DHT22;6664;52.514;13.440;2023-02-28T04:45:38;-2.00;56.90
13198;DHT22;6664;52.514;13.440;2023-02-28T04:48:27;-2.10;56.50
13198;DHT22;6664;52.514;13.440;2023-02-28T04:51:16;-2.00;57.50
13198;DHT22;6664;52.514;13.440;2023-02-28T04:54:04;-2.00;57.60
13198;DHT22;6664;52.514;13.440;2023-02-28T04:56:52;-2.00;57.60
13198;DHT22;6664;52.514;13.440;2023-02-28T04:59:38;-2.00;57.60
13198;DHT22;6664;52.514;13.440;2023-02-28T05:02:23;-2.00;57.60
13198;DHT22;6664;52.514;13.440;2023-02-28T05:05:09;-2.10;57.50
13198;DHT22;6664;52.514;13.440;2023-02-28T05:07:57;-2.10;57.60
13198;DHT22;6664;52.514;13.440;2023-02-28T05:10:42;-2.20;57.50
13198;DHT22;6664;52.514;13.440;2023-02-28T05:13:30;-2.20;58.00
13198;DHT22;6664;52.514;13.440;2023-02-28T05:16:17;-2.20;58.50
13198;DHT22;6664;52.514;13.440;2023-02-28T05:19:09;-2.20;58.80
13198;DHT22;6664;52.514;13.440;2023-02-28T05:21:55;-2.20;59.10
13198;DHT22;6664;52.514;13.440;2023-02-28T05:24:41;-2.20;59.30
13198;DHT22;6664;52.514;13.440;2023-02-28T05:27:27;-2.20;59.20
13198;DHT22;6664;52.514;13.440;2023-02-28T05:30:13;-2.20;59.50
13198;DHT22;6664;52.514;13.440;2023-02-28T05:32:59;-2.20;59.50
13198;DHT22;6664;52.514;13.440;2023-02-28T05:35:47;-2.20;59.60
13198;DHT22;6664;52.514;13.440;2023-02-28T05:38:33;-2.20;59.90
13198;DHT22;6664;52.514;13.440;2023-02-28T05:41:23;-2.20;60.00
13198;DHT22;6664;52.514;13.440;2023-02-28T05:44:12;-2.20;59.80
13198;DHT22;6664;52.514;13.440;2023-02-28T05:46:57;-2.20;60.30
13198;DHT22;6664;52.514;13.440;2023-02-28T05:49:45;-2.20;60.00
13198;DHT22;6664;52.514;13.440;2023-02-28T05:52:30;-2.30;60.10
13198;DHT22;6664;52.514;13.440;2023-02-28T05:55:16;-2.20;60.40
13198;DHT22;6664;52.514;13.440;2023-02-28T05:58:01;-2.20;60.30
13198;DHT22;6664;52.514;13.440;2023-02-28T06:00:49;-2.20;60.40
13198;DHT22;6664;52.514;13.440;2023-02-28T06:03:34;-2.30;60.30
13198;DHT22;6664;52.514;13.440;2023-02-28T06:06:20;-2.20;60.60
13198;DHT22;6664;52.514;13.440;2023-02-28T06:09:05;-2.20;60.70
13198;DHT22;6664;52.514;13.440;2023-02-28T06:11:53;-2.20;60.60
13198;DHT22;6664;52.514;13.440;2023-02-28T06:14:39;-2.10;60.90
13198;DHT22;6664;52.514;13.440;2023-02-28T06:17:24;-2.10;60.60
13198;DHT22;6664;52.514;13.440;2023-02-28T06:20:11;-2.10;60.60
13198;DHT22;6664;52.514;13.440;2023-02-28T06:22:58;-2.00;60.90
13198;DHT22;6664;52.514;13.440;2023-02-28T06:25:48;-2.00;60.70
13198;DHT22;6664;52.514;13.440;2023-02-28T06:28:34;-2.00;60.30
13198;DHT22;6664;52.514;13.440;2023-02-28T06:31:20;-1.90;60.40
13198;DHT22;6664;52.514;13.440;2023-02-28T06:34:06;-1.90;60.10
13198;DHT22;6664;52.514;13.440;2023-02-28T06:36:52;-1.90;59.70
13198;DHT22;6664;52.514;13.440;2023-02-28T06:39:38;-1.90;59.60
13198;DHT22;6664;52.514;13.440;2023-02-28T06:42:25;-1.80;59.30
13198;DHT22;6664;52.514;13.440;2023-02-28T06:45:14;-1.70;59.10
13198;DHT22;6664;52.514;13.440;2023-02-28T06:48:02;-1.80;58.60
13198;DHT22;6664;52.514;13.440;2023-02-28T06:50:47;-1.70;58.70
13198;DHT22;6664;52.514;13.440;2023-02-28T06:53:33;-1.70;58.20
13198;DHT22;6664;52.514;13.440;2023-02-28T06:56:19;-1.60;58.00
13198;DHT22;6664;52.514;13.440;2023-02-28T06:59:06;-1.50;58.00
13198;DHT22;6664;52.514;13.440;2023-02-28T07:01:52;-1.40;57.80
13198;DHT22;6664;52.514;13.440;2023-02-28T07:04:38;-1.50;56.90
13198;DHT22;6664;52.514;13.440;2023-02-28T07:07:25;-1.40;56.70
13198;DHT22;6664;52.514;13.440;2023-02-28T07:10:14;-1.40;56.10
13198;DHT22;6664;52.514;13.440;2023-02-28T07:13:05;-1.30;55.70
13198;DHT22;6664;52.514;13.440;2023-02-28T07:16:00;-1.30;55.50
13198;DHT22;6664;52.514;13.440;2023-02-28T07:18:46;-1.10;54.80
13198;DHT22;6664;52.514;13.440;2023-02-28T07:21:31;-1.10;54.40
13198;DHT22;6664;52.514;13.440;2023-02-28T07:24:17;-1.00;53.60
13198;DHT22;6664;52.514;13.440;2023-02-28T07:27:03;-0.90;52.50
13198;DHT22;6664;52.514;13.440;2023-02-28T07:29:51;-0.80;50.90
13198;DHT22;6664;52.514;13.440;2023-02-28T07:32:39;-0.80;50.10
13198;DHT22;6664;52.514;13.440;2023-02-28T07:35:28;-0.70;49.00
13198;DHT22;6664;52.514;13.440;2023-02-28T07:38:14;-0.60;48.40
13198;DHT22;6664;52.514;13.440;2023-02-28T07:41:01;-0.50;46.90
13198;DHT22;6664;52.514;13.440;2023-02-28T07:43:49;-0.40;46.00
13198;DHT22;6664;52.514;13.440;2023-02-28T07:46:34;-0.40;44.10
13198;DHT22;6664;52.514;13.440;2023-02-28T07:49:23;-0.30;42.60
13198;DHT22;6664;52.514;13.440;2023-02-28T07:52:09;-0.20;41.50
13198;DHT22;6664;52.514;13.440;2023-02-28T07:54:56;-0.20;40.40
13198;DHT22;6664;52.514;13.440;2023-02-28T07:57:44;-0.20;39.10
13198;DHT22;6664;52.514;13.440;2023-02-28T08:00:32;0.00;37.60
13198;DHT22;6664;52.514;13.440;2023-02-28T08:03:19;0.00;36.00
13198;DHT22;6664;52.514;13.440;2023-02-28T08:06:16;0.10;34.70
13198;DHT22;6664;52.514;13.440;2023-02-28T08:09:02;0.10;33.60
13198;DHT22;6664;52.514;13.440;2023-02-28T08:11:49;0.10;31.60
13198;DHT22;6664;52.514;13.440;2023-02-28T08:14:34;0.20;29.40
13198;DHT22;6664;52.514;13.440;2023-02-28T08:17:20;0.30;28.20
13198;DHT22;6664;52.514;13.440;2023-02-28T08:20:06;0.40;26.70
13198;DHT22;6664;52.514;13.440;2023-02-28T08:22:52;0.60;24.80
13198;DHT22;6664;52.514;13.440;2023-02-28T08:25:40;0.60;24.20
13198;DHT22;6664;52.514;13.440;2023-02-28T08:28:25;0.70;23.20
13198;DHT22;6664;52.514;13.440;2023-02-28T08:31:13;0.70;22.50
13198;DHT22;6664;52.514;13.440;2023-02-28T08:33:59;0.90;21.20
13198;DHT22;6664;52.514;13.440;2023-02-28T08:36:47;1.00;20.00
13198;DHT22;6664;52.514;13.440;2023-02-28T08:39:36;0.90;20.00
13198;DHT22;6664;52.514;13.440;2023-02-28T08:42:22;1.00;19.50
13198;DHT22;6664;52.514;13.440;2023-02-28T08:45:07;1.00;19.00
13198;DHT22;6664;52.514;13.440;2023-02-28T08:47:54;1.00;18.50
13198;DHT22;6664;52.514;13.440;2023-02-28T08:50:42;1.20;18.50
13198;DHT22;6664;52.514;13.440;2023-02-28T08:53:33;1.40;17.20
13198;DHT22;6664;52.514;13.440;2023-02-28T08:56:19;1.40;17.20
13198;DHT22;6664;52.514;13.440;2023-02-28T08:59:05;1.60;16.10
13198;DHT22;6664;52.514;13.440;2023-02-28T09:01:53;1.50;16.30
13198;DHT22;6664;52.514;13.440;2023-02-28T09:04:38;1.60;15.60
13198;DHT22;6664;52.514;13.440;2023-02-28T09:07:24;1.70;15.10
13198;DHT22;6664;52.514;13.440;2023-02-28T09:10:10;1.70;15.00
13198;DHT22;6664;52.514;13.440;2023-02-28T09:12:58;1.80;15.30
13198;DHT22;6664;52.514;13.440;2023-02-28T09:15:43;1.70;14.50
13198;DHT22;6664;52.514;13.440;2023-02-28T09:18:34;2.00;13.80
13198;DHT22;6664;52.514;13.440;2023-02-28T09:21:19;2.10;13.30
13198;DHT22;6664;52.514;13.440;2023-02-28T09:24:05;1.90;13.40
13198;DHT22;6664;52.514;13.440;2023-02-28T09:26:51;1.90;13.20
13198;DHT22;6664;52.514;13.440;2023-02-28T09:29:51;2.00;12.80
13198;DHT22;6664;52.514;13.440;2023-02-28T09:32:36;2.00;12.70
13198;DHT22;6664;52.514;13.440;2023-02-28T09:35:23;2.00;12.90
13198;DHT22;6664;52.514;13.440;2023-02-28T09:38:10;2.10;13.10
13198;DHT22;6664;52.514;13.440;2023-02-28T09:41:02;2.10;12.60
13198;DHT22;6664;52.514;13.440;2023-02-28T09:44:00;2.10;12.50
13198;DHT22;6664;52.514;13.440;2023-02-28T09:46:51;2.10;12.70
13198;DHT22;6664;52.514;13.440;2023-02-28T09:49:43;2.20;12.70
13198;DHT22;6664;52.514;13.440;2023-02-28T09:52:32;2.40;12.40
13198;DHT22;6664;52.514;13.440;2023-02-28T09:55:36;2.40;11.40
13198;DHT22;6664;52.514;13.440;2023-02-28T09:58:51;2.40;11.30
13198;DHT22;6664;52.514;13.440;2023-02-28T10:04:52;2.60;10.90
13198;DHT22;6664;52.514;13.440;2023-02-28T10:10:58;2.70;10.00
13198;DHT22;6664;52.514;13.440;2023-02-28T10:13:53;2.60;9.80
13198;DHT22;6664;52.514;13.440;2023-02-28T10:16:50;2.60;9.80
13198;DHT22;6664;52.514;13.440;2023-02-28T10:22:56;2.60;9.90
13198;DHT22;6664;52.514;13.440;2023-02-28T10:25:46;2.80;9.70
13198;DHT22;6664;52.514;13.440;2023-02-28T10:28:33;2.80;9.60
13198;DHT22;6664;52.514;13.440;2023-02-28T10:31:20;2.80;9.90
13198;DHT22;6664;52.514;13.440;2023-02-28T10:34:11;3.00;9.50
13198;DHT22;6664;52.514;13.440;2023-02-28T10:36:59;3.00;9.40
13198;DHT22;6664;52.514;13.440;2023-02-28T10:39:54;3.10;9.40
13198;DHT22;6664;52.514;13.440;2023-02-28T10:42:40;3.10;9.40
13198;DHT22;6664;52.514;13.440;2023-02-28T10:45:29;3.30;8.70
13198;DHT22;6664;52.514;13.440;2023-02-28T10:51:04;3.20;8.40
13198;DHT22;6664;52.514;13.440;2023-02-28T10:53:55;3.30;8.70
13198;DHT22;6664;52.514;13.440;2023-02-28T10:57:19;3.30;8.60
13198;DHT22;6664;52.514;13.440;2023-02-28T11:00:31;3.30;8.70
13198;DHT22;6664;52.514;13.440;2023-02-28T11:03:33;3.40;8.60
13198;DHT22;6664;52.514;13.440;2023-02-28T11:06:26;3.50;7.80
13198;DHT22;6664;52.514;13.440;2023-02-28T11:09:40;3.50;7.80
13198;DHT22;6664;52.514;13.440;2023-02-28T11:12:37;3.50;7.60
13198;DHT22;6664;52.514;13.440;2023-02-28T11:15:36;3.50;8.00
13198;DHT22;6664;52.514;13.440;2023-02-28T11:18:41;3.60;7.70
13198;DHT22;6664;52.514;13.440;2023-02-28T11:21:30;3.60;7.70
13198;DHT22;6664;52.514;13.440;2023-02-28T11:24:46;3.70;7.80
13198;DHT22;6664;52.514;13.440;2023-02-28T11:30:38;3.80;7.50
13198;DHT22;6664;52.514;13.440;2023-02-28T11:33:32;3.90;7.50
13198;DHT22;6664;52.514;13.440;2023-02-28T11:36:23;3.90;7.60
13198;DHT22;6664;52.514;13.440;2023-02-28T11:39:13;4.10;7.90
13198;DHT22;6664;52.514;13.440;2023-02-28T11:45:58;4.00;7.00
13198;DHT22;6664;52.514;13.440;2023-02-28T11:52:10;4.10;6.90
13198;DHT22;6664;52.514;13.440;2023-02-28T11:55:26;4.20;7.50
13198;DHT22;6664;52.514;13.440;2023-02-28T12:04:49;4.40;6.90
13198;DHT22;6664;52.514;13.440;2023-02-28T12:14:00;4.50;6.10
13198;DHT22;6664;52.514;13.440;2023-02-28T12:23:22;4.70;5.90
13198;DHT22;6664;52.514;13.440;2023-02-28T12:26:31;4.70;5.90
13198;DHT22;6664;52.514;13.440;2023-02-28T12:32:23;4.80;5.90
13198;DHT22;6664;52.514;13.440;2023-02-28T12:35:39;4.90;5.40
13198;DHT22;6664;52.514;13.440;2023-02-28T12:41:48;4.80;4.80
13198;DHT22;6664;52.514;13.440;2023-02-28T12:44:52;4.80;5.00
13198;DHT22;6664;52.514;13.440;2023-02-28T12:47:42;4.90;4.60
13198;DHT22;6664;52.514;13.440;2023-02-28T12:50:29;4.90;4.30
13198;DHT22;6664;52.514;13.440;2023-02-28T12:56:38;5.00;4.50
13198;DHT22;6664;52.514;13.440;2023-02-28T13:00:19;5.20;3.80
13198;DHT22;6664;52.514;13.440;2023-02-28T13:09:14;12.10;1.00
13198;DHT22;6664;52.514;13.440;2023-02-28T13:12:01;17.80;1.00
13198;DHT22;6664;52.514;13.440;2023-02-28T13:14:52;21.00;1.00
13198;DHT22;6664;52.514;13.440;2023-02-28T13:17:49;21.60;1.00
13198;DHT22;6664;52.514;13.440;2023-02-28T13:20:47;24.10;1.00
13198;DHT22;6664;52.514;13.440;2023-02-28T13:29:39;28.00;1.00
13198;DHT22;6664;52.514;13.440;2023-02-28T13:35:15;32.90;1.00
13198;DHT22;6664;52.514;13.440;2023-02-28T13:38:33;33.10;1.00
13198;DHT22;6664;52.514;13.440;2023-02-28T13:44:21;35.20;1.00
13198;DHT22;6664;52.514;13.440;2023-02-28T13:47:21;35.50;1.00
13198;DHT22;6664;52.514;13.440;2023-02-28T13:53:22;32.10;1.00
13198;DHT22;6664;52.514;13.440;2023-02-28T13:56:28;28.30;1.00
13198;DHT22;6664;52.514;13.440;2023-02-28T13:59:34;26.40;1.00
13198;DHT22;6664;52.514;13.440;2023-02-28T14:02:34;28.20;1.00
13198;DHT22;6664;52.514;13.440;2023-02-28T14:05:34;28.00;1.00
13198;DHT22;6664;52.514;13.440;2023-02-28T14:08:23;26.30;1.00
13198;DHT22;6664;52.514;13.440;2023-02-28T14:11:25;27.40;1.00
13198;DHT22;6664;52.514;13.440;2023-02-28T14:17:19;24.50;1.00
13198;DHT22;6664;52.514;13.440;2023-02-28T14:20:05;23.20;1.00
13198;DHT22;6664;52.514;13.440;2023-02-28T14:32:05;13.40;1.00
13198;DHT22;6664;52.514;13.440;2023-02-28T14:37:47;10.20;1.00
13198;DHT22;6664;52.514;13.440;2023-02-28T14:40:35;9.40;1.00
13198;DHT22;6664;52.514;13.440;2023-02-28T14:43:25;8.70;1.00
13198;DHT22;6664;52.514;13.440;2023-02-28T14:46:13;8.20;1.00
13198;DHT22;6664;52.514;13.440;2023-02-28T14:48:59;7.70;1.00
13198;DHT22;6664;52.514;13.440;2023-02-28T14:51:45;7.30;1.00
13198;DHT22;6664;52.514;13.440;2023-02-28T14:54:32;6.70;1.00
13198;DHT22;6664;52.514;13.440;2023-02-28T14:57:23;6.50;1.00
13198;DHT22;6664;52.514;13.440;2023-02-28T15:03:39;6.10;1.00
13198;DHT22;6664;52.514;13.440;2023-02-28T15:06:24;5.80;1.00
13198;DHT22;6664;52.514;13.440;2023-02-28T15:09:18;5.70;1.00
13198;DHT22;6664;52.514;13.440;2023-02-28T15:12:04;5.60;1.00
13198;DHT22;6664;52.514;13.440;2023-02-28T15:14:50;5.50;1.00
13198;DHT22;6664;52.514;13.440;2023-02-28T15:17:46;5.30;1.00
13198;DHT22;6664;52.514;13.440;2023-02-28T15:20:35;5.30;1.00
13198;DHT22;6664;52.514;13.440;2023-02-28T15:23:24;5.20;1.00
13198;DHT22;6664;52.514;13.440;2023-02-28T15:26:15;5.10;1.00
13198;DHT22;6664;52.514;13.440;2023-02-28T15:29:21;5.00;1.00
13198;DHT22;6664;52.514;13.440;2023-02-28T15:32:15;4.90;1.00
13198;DHT22;6664;52.514;13.440;2023-02-28T15:35:28;4.80;1.00
13198;DHT22;6664;52.514;13.440;2023-02-28T15:38:26;4.70;1.00
13198;DHT22;6664;52.514;13.440;2023-02-28T15:41:35;4.70;1.00
13198;DHT22;6664;52.514;13.440;2023-02-28T15:44:24;4.60;1.00
13198;DHT22;6664;52.514;13.440;2023-02-28T15:47:19;4.50;1.00
13198;DHT22;6664;52.514;13.440;2023-02-28T15:50:12;4.50;1.00
13198;DHT22;6664;52.514;13.440;2023-02-28T15:53:00;4.50;1.00
13198;DHT22;6664;52.514;13.440;2023-02-28T15:55:59;4.40;1.00
13198;DHT22;6664;52.514;13.440;2023-02-28T15:58:47;4.30;1.00
13198;DHT22;6664;52.514;13.440;2023-02-28T16:01:39;4.20;1.00
13198;DHT22;6664;52.514;13.440;2023-02-28T16:04:24;4.10;1.00
13198;DHT22;6664;52.514;13.440;2023-02-28T16:07:20;4.00;1.00
13198;DHT22;6664;52.514;13.440;2023-02-28T16:10:08;4.00;1.00
13198;DHT22;6664;52.514;13.440;2023-02-28T16:12:57;3.90;2.00
13198;DHT22;6664;52.514;13.440;2023-02-28T16:15:43;3.80;2.20
13198;DHT22;6664;52.514;13.440;2023-02-28T16:18:34;3.60;2.20
13198;DHT22;6664;52.514;13.440;2023-02-28T16:21:20;3.60;2.70
13198;DHT22;6664;52.514;13.440;2023-02-28T16:24:07;3.40;3.00
13198;DHT22;6664;52.514;13.440;2023-02-28T16:26:58;3.30;3.60
13198;DHT22;6664;52.514;13.440;2023-02-28T16:29:44;3.20;4.00
13198;DHT22;6664;52.514;13.440;2023-02-28T16:32:33;3.20;4.20
13198;DHT22;6664;52.514;13.440;2023-02-28T16:35:22;3.10;4.60
13198;DHT22;6664;52.514;13.440;2023-02-28T16:38:09;3.10;4.60
13198;DHT22;6664;52.514;13.440;2023-02-28T16:40:56;2.90;4.80
13198;DHT22;6664;52.514;13.440;2023-02-28T16:43:44;2.90;5.20
13198;DHT22;6664;52.514;13.440;2023-02-28T16:46:33;2.70;5.40
13198;DHT22;6664;52.514;13.440;2023-02-28T16:49:20;2.60;6.20
13198;DHT22;6664;52.514;13.440;2023-02-28T16:52:06;2.50;6.60
13198;DHT22;6664;52.514;13.440;2023-02-28T16:54:52;2.50;7.10
13198;DHT22;6664;52.514;13.440;2023-02-28T16:57:39;2.30;7.20
13198;DHT22;6664;52.514;13.440;2023-02-28T17:00:26;2.10;7.30
13198;DHT22;6664;52.514;13.440;2023-02-28T17:06:25;2.00;8.30
13198;DHT22;6664;52.514;13.440;2023-02-28T17:09:25;1.90;8.60
13198;DHT22;6664;52.514;13.440;2023-02-28T17:12:25;1.70;9.00
13198;DHT22;6664;52.514;13.440;2023-02-28T17:15:13;1.80;9.40
13198;DHT22;6664;52.514;13.440;2023-02-28T17:18:02;1.70;9.20
13198;DHT22;6664;52.514;13.440;2023-02-28T17:20:48;1.60;9.60
13198;DHT22;6664;52.514;13.440;2023-02-28T17:23:35;1.60;9.70
13198;DHT22;6664;52.514;13.440;2023-02-28T17:26:21;1.70;10.20
13198;DHT22;6664;52.514;13.440;2023-02-28T17:29:20;1.60;10.10
13198;DHT22;6664;52.514;13.440;2023-02-28T17:32:06;1.50;10.50
13198;DHT22;6664;52.514;13.440;2023-02-28T17:35:02;1.40;10.80
13198;DHT22;6664;52.514;13.440;2023-02-28T17:37:47;1.40;10.90
13198;DHT22;6664;52.514;13.440;2023-02-28T17:40:33;1.40;11.20
13198;DHT22;6664;52.514;13.440;2023-02-28T17:43:19;1.40;11.50
13198;DHT22;6664;52.514;13.440;2023-02-28T17:46:15;1.30;11.50
13198;DHT22;6664;52.514;13.440;2023-02-28T17:49:05;1.30;12.00
13198;DHT22;6664;52.514;13.440;2023-02-28T17:51:51;1.30;12.00
13198;DHT22;6664;52.514;13.440;2023-02-28T17:54:36;1.20;12.50
13198;DHT22;6664;52.514;13.440;2023-02-28T17:57:21;1.10;12.60
13198;DHT22;6664;52.514;13.440;2023-02-28T18:00:08;1.20;12.70
13198;DHT22;6664;52.514;13.440;2023-02-28T18:02:56;1.10;12.60
13198;DHT22;6664;52.514;13.440;2023-02-28T18:05:42;1.10;12.90
13198;DHT22;6664;52.514;13.440;2023-02-28T18:08:28;1.10;13.10
13198;DHT22;6664;52.514;13.440;2023-02-28T18:11:15;1.00;13.00
13198;DHT22;6664;52.514;13.440;2023-02-28T18:14:09;1.00;13.60
13198;DHT22;6664;52.514;13.440;2023-02-28T18:16:54;0.90;13.80
13198;DHT22;6664;52.514;13.440;2023-02-28T18:19:40;0.90;14.10
13198;DHT22;6664;52.514;13.440;2023-02-28T18:22:26;1.00;14.30
13198;DHT22;6664;52.514;13.440;2023-02-28T18:25:12;0.90;14.40
13198;DHT22;6664;52.514;13.440;2023-02-28T18:28:02;0.90;14.40
13198;DHT22;6664;52.514;13.440;2023-02-28T18:30:49;0.90;14.60
13198;DHT22;6664;52.514;13.440;2023-02-28T18:33:35;0.80;14.70
13198;DHT22;6664;52.514;13.440;2023-02-28T18:36:22;0.80;15.10
13198;DHT22;6664;52.514;13.440;2023-02-28T18:39:09;0.70;15.00
13198;DHT22;6664;52.514;13.440;2023-02-28T18:41:56;0.60;15.60
13198;DHT22;6664;52.514;13.440;2023-02-28T18:44:42;0.60;15.80
13198;DHT22;6664;52.514;13.440;2023-02-28T18:47:28;0.60;15.90
13198;DHT22;6664;52.514;13.440;2023-02-28T18:50:13;0.70;16.10
13198;DHT22;6664;52.514;13.440;2023-02-28T18:52:58;0.70;16.50
13198;DHT22;6664;52.514;13.440;2023-02-28T18:55:49;0.60;16.30
13198;DHT22;6664;52.514;13.440;2023-02-28T18:58:35;0.50;16.60
13198;DHT22;6664;52.514;13.440;2023-02-28T19:01:26;0.40;16.80
13198;DHT22;6664;52.514;13.440;2023-02-28T19:04:14;0.50;17.40
13198;DHT22;6664;52.514;13.440;2023-02-28T19:07:00;0.40;17.40
13198;DHT22;6664;52.514;13.440;2023-02-28T19:09:47;0.40;17.70
13198;DHT22;6664;52.514;13.440;2023-02-28T19:12:34;0.40;18.10
13198;DHT22;6664;52.514;13.440;2023-02-28T19:15:22;0.40;18.40
13198;DHT22;6664;52.514;13.440;2023-02-28T19:18:10;0.40;18.60
13198;DHT22;6664;52.514;13.440;2023-02-28T19:20:55;0.30;18.70
13198;DHT22;6664;52.514;13.440;2023-02-28T19:23:44;0.30;19.00
13198;DHT22;6664;52.514;13.440;2023-02-28T19:26:29;0.20;19.00
13198;DHT22;6664;52.514;13.440;2023-02-28T19:29:15;0.30;19.50
13198;DHT22;6664;52.514;13.440;2023-02-28T19:32:04;0.10;19.40
13198;DHT22;6664;52.514;13.440;2023-02-28T19:34:50;0.20;19.70
13198;DHT22;6664;52.514;13.440;2023-02-28T19:37:39;0.10;19.70
13198;DHT22;6664;52.514;13.440;2023-02-28T19:40:25;0.10;19.80
13198;DHT22;6664;52.514;13.440;2023-02-28T19:43:11;0.00;20.20
13198;DHT22;6664;52.514;13.440;2023-02-28T19:45:58;-0.20;20.30
13198;DHT22;6664;52.514;13.440;2023-02-28T19:48:43;-0.10;20.60
13198;DHT22;6664;52.514;13.440;2023-02-28T19:51:29;0.00;20.70
13198;DHT22;6664;52.514;13.440;2023-02-28T19:54:15;-0.10;20.60
13198;DHT22;6664;52.514;13.440;2023-02-28T19:57:01;-0.10;20.70
13198;DHT22;6664;52.514;13.440;2023-02-28T19:59:46;-0.10;21.10
13198;DHT22;6664;52.514;13.440;2023-02-28T20:02:33;-0.20;21.30
13198;DHT22;6664;52.514;13.440;2023-02-28T20:05:18;-0.10;21.70
13198;DHT22;6664;52.514;13.440;2023-02-28T20:08:05;-0.20;21.70
13198;DHT22;6664;52.514;13.440;2023-02-28T20:10:53;-0.20;21.50
13198;DHT22;6664;52.514;13.440;2023-02-28T20:13:39;-0.30;21.70
13198;DHT22;6664;52.514;13.440;2023-02-28T20:16:25;-0.30;22.00
13198;DHT22;6664;52.514;13.440;2023-02-28T20:19:15;-0.30;22.20